International Virtual Aviation Organisation

Russian Federation and Kazakhstan MCD

 
UWKS 270330Z 16004MPS 6000 -SN OVC003 M04/M05 Q1020 R24/920151 NOSIG RMK QFE750
QNH:(hPa/inHg/mmHg)1020 / 30.12 / 765
QFE:(hPa/inHg/mmHg)999 / 29.51 / 750
Temperature-4
Dew Point-5
Visibility6000
WeatherLight Snow
Cloud CoverOVC (300);
Transition Height800 m./3200 ft.
Transition LevelFL40
SQUAWK